LCPHLCLK

Guest
Details From LCPH - PAFOS INTL
To LCLK - Larnaca
Flight Number -
Tags generated
Created
Modified
Stats Distance 57 nm / 106 km
Max Altitude 5,800 ft / 1,768 m
Waypoints 4
Social Downloads 0
Likes 0
Share VATSIM

Download

Looking for another format? Having issues loading an existing format? Contact us
Advertisement - Login to hide

Notes

Basic altitude profile: - Ascent Rate: 2500ft/min - Ascent Speed: 250kts - Cruise Altitude: 35000ft - Cruise Speed: 420kts - Descent Rate: 1500ft/min - Descent Speed: 250kts Options: - Use NATs: yes - Use PACOTS: yes - Use low airways: yes - Use high airways: yes

Route

LCPH NORDI W195 LCA LCLK

ID Type Via Altitude Latitude Longitude Leg Dist Tot Dist Heading (true) Name
O LCPH APT - 0 ft / 0 m 34.71804˚ 32.48573˚ - 0 nm - PAFOS INTL
NORDI FIX - 5,800 ft / 1,768 m 34.79667˚ 33.08833˚ 30 nm 30 nm 81° / 81° -
LCA VOR W195 (AWY-LO) 5,000 ft / 1,524 m 34.87333˚ 33.62667˚ 26 nm 57 nm 80° / 80° LARNACA VOR-DME
O LCLK APT - 0 ft / 0 m 34.87512˚ 33.62483˚ 0 nm 57 nm 320° / 320° Larnaca

Altitude Profile

Advertisement - Login to hide

LCPH

Details ICAO LCPH (PFO)
Name PAFOS INTL
Region Cyprus
Timezone Asia/Nicosia (UTC+2.0)
Stats Elevation 41 ft / 12 m (AMSL)
Location 34.718038° 32.485731°
Runways 1
Magnetic Variation 4.918° E

METAR

LCPH 151430Z 29007KT 9999 FEW020 18/13 Q1020

Decode

TAF

TAF LCPH 151130Z 1512/1612 28012KT 9999 SCT045 BECMG 1516/1520 02006KT BECMG 1608/1612 23010KT

Decode

Departure Runways

ID Width Length Bearing (true) Bearing (mag) Surface Threshold Offset Overrun Length
11 148 ft / 45 m 8,854 ft / 2,699 m 110.34° 105.42° Asphalt 0 ft / 0 m 0 ft / 0 m
29 148 ft / 45 m 8,854 ft / 2,699 m 290.36° 285.44° Asphalt 0 ft / 0 m 150 ft / 46 m

LCLK

Details ICAO LCLK (LCA)
Name Larnaca
Region Cyprus
Timezone Asia/Nicosia (UTC+2.0)
Stats Elevation 8 ft / 2 m (AMSL)
Location 34.875115° 33.624832°
Runways 1
Magnetic Variation 4.990° E

METAR

LCLK 151430Z 22006KT 9999 FEW030 SCT060 19/13 Q1019 NOSIG

Decode

TAF

TAF LCLK 151130Z 1512/1612 20010KT 9999 FEW030 BECMG 1515/1518 32006KT BECMG 1608/1612 20010KT

Decode

Destination Runways

ID Width Length Bearing (true) Bearing (mag) Surface Threshold Offset Overrun Length
04 148 ft / 45 m 9,771 ft / 2,978 m 45.15° 40.16° Asphalt 0 ft / 0 m 210 ft / 64 m
22 148 ft / 45 m 9,771 ft / 2,978 m 225.17° 220.18° Asphalt 575 ft / 175 m 0 ft / 0 m

Approach Navaids

Runway Type Ident Frequency Range Bearing (true) Bearing (mag) Slope Elevation
22 Localiser ILC 110.30 MHz 18 nm / 33 km 225.17° 220.18° - 8 ft / 2 m (AMSL)
22 Glidescope ILC 110.30 MHz 10 nm / 19 km 225.16° 220.17° 2.75° 24 ft / 7 m (AMSL)
22 DME ILC 110.30 MHz 18 nm / 33 km - - - 20 ft / 6 m (AMSL)

Popular Alternatives